createdAt,value
2023-04-02T00:01:46.591Z,28.40
2023-04-02T00:04:38.146Z,31.13
2023-04-02T00:07:31.058Z,33.92
2023-04-02T00:09:59.643Z,31.90
2023-04-02T00:12:29.481Z,24.05
2023-04-02T00:14:58.811Z,35.03
2023-04-02T00:17:27.434Z,29.20
2023-04-02T00:20:01.959Z,31.98
2023-04-02T00:22:34.066Z,28.00
2023-04-02T00:25:08.981Z,34.00
2023-04-02T00:27:37.775Z,33.38
2023-04-02T00:30:07.898Z,33.33
2023-04-02T00:32:37.188Z,26.30
2023-04-02T00:35:13.117Z,34.08
2023-04-02T00:37:42.115Z,34.40
2023-04-02T00:40:18.520Z,28.42
2023-04-02T00:42:48.104Z,29.80
2023-04-02T00:45:25.092Z,28.80
2023-04-02T00:47:54.190Z,26.50
2023-04-02T00:50:30.771Z,30.80
2023-04-02T00:53:00.516Z,22.85
2023-04-02T00:55:36.485Z,22.17
2023-04-02T00:58:05.698Z,24.42
2023-04-02T01:00:36.120Z,25.08
2023-04-02T01:03:34.613Z,28.02
2023-04-02T01:06:11.018Z,27.10
2023-04-02T01:08:55.893Z,27.40
2023-04-02T01:11:49.397Z,29.42
2023-04-02T01:14:25.440Z,29.85
2023-04-02T01:17:00.764Z,27.80
2023-04-02T01:19:54.422Z,31.35
2023-04-02T01:22:35.303Z,34.65
2023-04-02T01:25:06.567Z,30.58
2023-04-02T01:27:42.319Z,32.65
2023-04-02T01:30:14.628Z,39.50
2023-04-02T01:32:44.737Z,33.58
2023-04-02T01:35:15.109Z,32.30
2023-04-02T01:37:50.517Z,37.10
2023-04-02T01:40:33.915Z,34.38
2023-04-02T01:43:12.334Z,33.60
2023-04-02T01:45:42.075Z,32.42
2023-04-02T01:48:16.908Z,32.50
2023-04-02T01:50:46.834Z,30.65
2023-04-02T01:53:19.033Z,30.92
2023-04-02T01:55:52.573Z,25.83
2023-04-02T01:58:25.722Z,28.10
2023-04-02T02:01:02.273Z,27.00
2023-04-02T02:03:30.952Z,31.38
2023-04-02T02:05:59.738Z,26.00
2023-04-02T02:08:35.790Z,25.60
2023-04-02T02:11:04.768Z,25.10
2023-04-02T02:13:33.633Z,25.08
2023-04-02T02:16:06.189Z,21.90
2023-04-02T02:18:34.955Z,30.63
2023-04-02T02:21:09.489Z,26.85
2023-04-02T02:23:38.360Z,29.55
2023-04-02T02:26:08.130Z,31.55
2023-04-02T02:28:42.003Z,29.63
2023-04-02T02:31:17.894Z,33.80
2023-04-02T02:33:48.985Z,29.73
2023-04-02T02:36:25.104Z,27.30
2023-04-02T02:38:57.456Z,36.60
2023-04-02T02:41:31.540Z,31.85
2023-04-02T02:44:08.593Z,39.90
2023-04-02T02:46:41.656Z,36.35
2023-04-02T02:49:16.687Z,44.15
2023-04-02T02:51:49.237Z,36.28
2023-04-02T02:54:20.362Z,35.78
2023-04-02T02:57:07.847Z,36.90
2023-04-02T02:59:37.258Z,29.63
2023-04-02T03:02:08.221Z,31.55
2023-04-02T03:04:37.239Z,36.60
2023-04-02T03:07:09.005Z,36.55
2023-04-02T03:09:44.654Z,32.53
2023-04-02T03:12:22.724Z,32.03
2023-04-02T03:14:55.688Z,35.83
2023-04-02T03:17:29.435Z,32.65
2023-04-02T03:20:01.592Z,33.33
2023-04-02T03:22:35.535Z,31.55
2023-04-02T03:25:05.973Z,31.90
2023-04-02T03:27:36.367Z,33.05
2023-04-02T03:30:12.031Z,25.50
2023-04-02T03:32:45.253Z,21.40
2023-04-02T03:35:23.782Z,24.58
2023-04-02T03:37:57.115Z,26.17
2023-04-02T03:40:28.179Z,26.48
2023-04-02T03:43:02.759Z,24.98
2023-04-02T03:45:35.419Z,26.95
2023-04-02T03:48:11.246Z,28.75
2023-04-02T03:50:46.585Z,30.83
2023-04-02T03:53:15.507Z,29.13
2023-04-02T03:55:44.720Z,33.42
2023-04-02T03:58:17.356Z,28.13
2023-04-02T04:00:48.547Z,28.05
2023-04-02T04:03:20.076Z,25.80
2023-04-02T04:05:53.503Z,24.00
2023-04-02T04:08:25.260Z,22.98
2023-04-02T04:10:57.326Z,23.13
2023-04-02T04:13:32.375Z,22.65
2023-04-02T04:16:08.747Z,24.83
2023-04-02T04:18:46.711Z,29.60
2023-04-02T04:21:31.841Z,25.45
2023-04-02T04:24:04.927Z,23.35
2023-04-02T04:26:39.583Z,20.52
2023-04-02T04:29:15.952Z,20.90
2023-04-02T04:31:47.226Z,21.65
2023-04-02T04:34:19.255Z,20.98
2023-04-02T04:36:54.441Z,22.48
2023-04-02T04:39:29.908Z,22.02
2023-04-02T04:42:00.037Z,19.60
2023-04-02T04:44:37.102Z,20.88
2023-04-02T04:47:08.094Z,20.90
2023-04-02T04:49:40.559Z,18.48
2023-04-02T04:52:11.165Z,23.13
2023-04-02T04:54:41.531Z,24.27
2023-04-02T04:58:01.066Z,22.52
2023-04-02T05:00:35.175Z,22.38
2023-04-02T05:03:09.223Z,21.57
2023-04-02T05:05:41.156Z,23.48
2023-04-02T05:08:14.012Z,21.45
2023-04-02T05:10:47.785Z,21.37
2023-04-02T05:13:24.086Z,18.47
2023-04-02T05:16:02.203Z,19.58
2023-04-02T05:18:33.208Z,19.90
2023-04-02T05:21:08.331Z,18.23
2023-04-02T05:23:37.885Z,18.83
2023-04-02T05:26:10.701Z,15.98
2023-04-02T05:28:42.535Z,16.05
2023-04-02T05:31:13.482Z,19.65
2023-04-02T05:33:46.342Z,18.33
2023-04-02T05:36:21.785Z,18.25
2023-04-02T05:38:51.881Z,17.13
2023-04-02T05:41:27.685Z,17.13
2023-04-02T05:44:07.370Z,15.90
2023-04-02T05:46:38.010Z,17.47
2023-04-02T05:49:09.008Z,16.83
2023-04-02T05:51:41.835Z,17.20
2023-04-02T05:54:18.486Z,16.33
2023-04-02T05:56:48.982Z,15.27
2023-04-02T05:59:19.595Z,15.90
2023-04-02T06:01:49.738Z,16.13
2023-04-02T06:04:22.629Z,15.50
2023-04-02T06:06:56.458Z,14.00
2023-04-02T06:09:29.843Z,13.80
2023-04-02T06:12:01.470Z,14.10
2023-04-02T06:14:30.031Z,13.80
2023-04-02T06:16:59.003Z,14.57
2023-04-02T06:19:29.442Z,14.50
2023-04-02T06:22:02.801Z,15.20
2023-04-02T06:24:31.943Z,12.00
2023-04-02T06:27:05.932Z,13.70
2023-04-02T06:29:39.670Z,13.50
2023-04-02T06:32:08.907Z,13.80
2023-04-02T06:34:38.981Z,12.88
2023-04-02T06:37:17.387Z,17.13
2023-04-02T06:39:46.303Z,15.67
2023-04-02T06:42:15.969Z,15.05
2023-04-02T06:44:44.968Z,12.30
2023-04-02T06:47:18.829Z,13.63
2023-04-02T06:49:49.254Z,13.98
2023-04-02T06:52:22.378Z,13.57
2023-04-02T06:54:51.304Z,15.87
2023-04-02T06:57:20.022Z,13.23
2023-04-02T06:59:48.735Z,11.43
2023-04-02T07:02:30.548Z,12.53
2023-04-02T07:05:02.047Z,12.50
2023-04-02T07:07:31.912Z,13.30
2023-04-02T07:10:00.451Z,13.13
2023-04-02T07:12:29.046Z,13.27
2023-04-02T07:14:57.404Z,12.13
2023-04-02T07:17:25.769Z,10.63
2023-04-02T07:20:01.120Z,6.32
2023-04-02T07:22:29.477Z,6.33
2023-04-02T07:25:00.056Z,6.78
2023-04-02T07:27:28.587Z,7.30
2023-04-02T07:29:57.764Z,7.00
2023-04-02T07:32:26.266Z,7.13
2023-04-02T07:34:54.905Z,7.53
2023-04-02T07:37:23.314Z,7.77
2023-04-02T07:39:51.790Z,9.73
2023-04-02T07:42:21.825Z,9.40
2023-04-02T07:44:51.309Z,9.17
2023-04-02T07:47:19.784Z,7.22
2023-04-02T07:49:48.366Z,9.55
2023-04-02T07:52:17.685Z,8.40
2023-04-02T07:54:46.619Z,6.37
2023-04-02T07:57:15.039Z,6.20
2023-04-02T07:59:45.150Z,5.50
2023-04-02T08:02:21.527Z,5.60
2023-04-02T08:04:51.194Z,8.07
2023-04-02T08:07:20.107Z,8.00
2023-04-02T08:09:48.662Z,7.85
2023-04-02T08:12:17.029Z,7.60
2023-04-02T08:14:46.782Z,7.80
2023-04-02T08:17:15.266Z,7.67
2023-04-02T08:19:54.107Z,7.83
2023-04-02T08:22:23.338Z,7.53
2023-04-02T08:24:51.703Z,7.60
2023-04-02T08:27:20.128Z,8.73
2023-04-02T08:29:49.920Z,7.50
2023-04-02T08:32:18.611Z,10.53
2023-04-02T08:34:47.452Z,9.97
2023-04-02T08:37:16.280Z,8.17
2023-04-02T08:39:44.838Z,9.83
2023-04-02T08:42:21.032Z,7.87
2023-04-02T08:45:21.206Z,9.77
2023-04-02T08:47:56.302Z,9.63
2023-04-02T08:50:28.654Z,9.00
2023-04-02T08:52:57.373Z,9.13
2023-04-02T08:55:32.938Z,6.67
2023-04-02T08:58:03.756Z,7.77
2023-04-02T09:00:38.094Z,10.03
2023-04-02T09:03:10.962Z,8.83
2023-04-02T09:05:41.970Z,8.00
2023-04-02T09:08:18.668Z,9.67
2023-04-02T09:10:52.801Z,9.73
2023-04-02T09:13:25.164Z,9.93
2023-04-02T09:16:02.244Z,7.90
2023-04-02T09:18:33.390Z,12.83
2023-04-02T09:21:04.954Z,11.70
2023-04-02T09:23:33.568Z,10.70
2023-04-02T09:26:04.509Z,10.77
2023-04-02T09:28:33.437Z,10.67
2023-04-02T09:31:18.113Z,11.40
2023-04-02T09:33:48.428Z,11.83
2023-04-02T09:36:34.032Z,7.07
2023-04-02T09:39:06.982Z,7.87
2023-04-02T09:41:37.469Z,7.40
2023-04-02T09:44:21.911Z,10.03
2023-04-02T09:46:59.794Z,11.00
2023-04-02T09:49:31.091Z,6.93
2023-04-02T09:52:27.841Z,8.53
2023-04-02T09:55:31.209Z,5.60
2023-04-02T09:58:13.755Z,5.90
2023-04-02T10:00:51.968Z,7.60
2023-04-02T10:03:26.226Z,6.30
2023-04-02T10:06:09.569Z,6.17
2023-04-02T10:08:39.248Z,4.40
2023-04-02T10:11:11.821Z,4.77
2023-04-02T10:13:51.060Z,7.23
2023-04-02T10:16:27.087Z,6.73
2023-04-02T10:18:59.692Z,4.60
2023-04-02T10:21:30.250Z,5.13
2023-04-02T10:23:59.618Z,7.17
2023-04-02T10:26:51.461Z,6.13
2023-04-02T10:29:46.956Z,4.87
2023-04-02T10:32:19.968Z,6.93
2023-04-02T10:34:57.808Z,6.55
2023-04-02T10:37:52.589Z,6.57
2023-04-02T10:40:26.586Z,8.43
2023-04-02T10:43:10.416Z,4.70
2023-04-02T10:45:47.377Z,8.77
2023-04-02T10:48:23.352Z,4.67
2023-04-02T10:50:59.331Z,4.33
2023-04-02T10:53:35.043Z,7.67
2023-04-02T10:56:08.816Z,4.03
2023-04-02T10:58:44.297Z,6.10
2023-04-02T11:01:18.223Z,4.03
2023-04-02T11:03:53.274Z,3.83
2023-04-02T11:06:27.059Z,3.53
2023-04-02T11:08:59.960Z,3.53
2023-04-02T11:11:32.353Z,5.97
2023-04-02T11:14:07.067Z,4.43
2023-04-02T11:16:37.690Z,5.50
2023-04-02T11:19:26.438Z,4.90
2023-04-02T11:21:59.599Z,6.00
2023-04-02T11:24:40.621Z,6.63
2023-04-02T11:27:18.000Z,4.93
2023-04-02T11:29:47.446Z,4.93
2023-04-02T11:32:35.284Z,4.40
2023-04-02T11:35:25.762Z,7.27
2023-04-02T11:37:56.424Z,5.77
2023-04-02T11:40:48.178Z,5.37
2023-04-02T11:43:31.626Z,4.20
2023-04-02T11:46:01.236Z,6.10
2023-04-02T11:48:31.114Z,6.27
2023-04-02T11:51:28.608Z,5.23
2023-04-02T11:53:58.882Z,5.10
2023-04-02T11:56:30.849Z,7.67
2023-04-02T11:59:05.773Z,5.70
2023-04-02T12:01:46.276Z,4.30
2023-04-02T12:04:30.788Z,5.07
2023-04-02T12:07:06.605Z,4.57
2023-04-02T12:09:44.495Z,4.20
2023-04-02T12:12:18.718Z,5.40
2023-04-02T12:14:47.829Z,4.57
2023-04-02T12:17:19.322Z,8.17
2023-04-02T12:19:52.442Z,5.47
2023-04-02T12:22:22.368Z,4.32
2023-04-02T12:24:52.723Z,6.10
2023-04-02T12:27:24.507Z,7.30
2023-04-02T12:29:53.427Z,4.73
2023-04-02T12:32:23.461Z,5.23
2023-04-02T12:34:53.409Z,6.30
2023-04-02T12:37:23.933Z,7.23
2023-04-02T12:40:01.287Z,4.97
2023-04-02T12:42:31.279Z,4.57
2023-04-02T12:44:59.927Z,4.28
2023-04-02T12:47:28.757Z,5.05
2023-04-02T12:49:58.625Z,4.60
2023-04-02T12:52:29.636Z,6.97
2023-04-02T12:55:00.452Z,5.93
2023-04-02T12:57:43.098Z,5.17
2023-04-02T13:00:31.679Z,5.03
2023-04-02T13:03:04.802Z,4.60
2023-04-02T13:05:34.481Z,5.03
2023-04-02T13:08:03.227Z,6.63
2023-04-02T13:10:33.476Z,5.25
2023-04-02T13:13:02.956Z,3.97
2023-04-02T13:15:33.138Z,3.53
2023-04-02T13:18:06.410Z,4.17
2023-04-02T13:20:36.549Z,3.63
2023-04-02T13:23:25.250Z,3.67
2023-04-02T13:25:55.437Z,5.07
2023-04-02T13:28:24.016Z,2.88
2023-04-02T13:30:52.680Z,3.40
2023-04-02T13:33:22.079Z,4.00
2023-04-02T13:35:50.852Z,4.13
2023-04-02T13:38:19.576Z,4.13
2023-04-02T13:40:48.145Z,4.28
2023-04-02T13:43:20.766Z,4.45
2023-04-02T13:45:52.756Z,4.18
2023-04-02T13:48:24.644Z,3.65
2023-04-02T13:50:54.031Z,4.68
2023-04-02T13:53:26.163Z,4.60
2023-04-02T13:55:54.572Z,5.00
2023-04-02T13:58:24.387Z,4.43
2023-04-02T14:00:52.949Z,4.15
2023-04-02T14:03:23.635Z,3.92
2023-04-02T14:06:01.695Z,5.20
2023-04-02T14:08:40.459Z,4.22
2023-04-02T14:11:24.927Z,4.03
2023-04-02T14:14:16.175Z,4.53
2023-04-02T14:17:00.300Z,5.18
2023-04-02T14:19:46.737Z,4.55
2023-04-02T14:22:26.617Z,6.35
2023-04-02T14:25:02.131Z,5.97
2023-04-02T14:27:40.341Z,4.22
2023-04-02T14:30:18.831Z,5.75
2023-04-02T14:32:59.116Z,4.13
2023-04-02T14:35:34.966Z,5.78
2023-04-02T14:38:13.253Z,6.13
2023-04-02T14:40:49.544Z,2.60
2023-04-02T14:43:23.342Z,5.05
2023-04-02T14:46:04.222Z,6.95
2023-04-02T14:48:43.762Z,7.35
2023-04-02T14:51:22.298Z,4.60
2023-04-02T14:53:59.273Z,6.05
2023-04-02T14:56:27.895Z,5.40
2023-04-02T14:59:08.511Z,3.67
2023-04-02T15:01:42.505Z,4.13
2023-04-02T15:04:16.167Z,6.80
2023-04-02T15:06:48.580Z,5.10
2023-04-02T15:09:21.263Z,4.00
2023-04-02T15:11:52.692Z,6.35
2023-04-02T15:14:24.929Z,3.15
2023-04-02T15:16:55.182Z,3.17
2023-04-02T15:19:23.480Z,2.50
2023-04-02T15:22:08.813Z,5.40
2023-04-02T15:24:49.592Z,2.05
2023-04-02T15:27:33.001Z,2.30
2023-04-02T15:30:09.033Z,1.60
2023-04-02T15:32:40.688Z,5.15
2023-04-02T15:35:20.298Z,4.03
2023-04-02T15:37:53.239Z,2.42
2023-04-02T15:40:31.594Z,4.32
2023-04-02T15:43:07.004Z,2.15
2023-04-02T15:45:46.767Z,4.93
2023-04-02T15:48:47.938Z,3.40
2023-04-02T15:51:34.098Z,1.45
2023-04-02T15:54:12.002Z,1.17
2023-04-02T15:56:49.653Z,1.85
2023-04-02T15:59:54.706Z,1.98
2023-04-02T16:02:54.371Z,2.20
2023-04-02T16:05:33.434Z,2.67
2023-04-02T16:08:27.782Z,1.92
2023-04-02T16:10:56.574Z,4.22
2023-04-02T16:13:30.583Z,1.35
2023-04-02T16:16:05.528Z,2.15
2023-04-02T16:18:46.273Z,1.70
2023-04-02T16:21:19.690Z,2.28
2023-04-02T16:23:50.053Z,2.67
2023-04-02T16:26:42.240Z,4.80
2023-04-02T16:29:23.919Z,2.80
2023-04-02T16:31:59.305Z,2.97
2023-04-02T16:34:39.961Z,1.80
2023-04-02T16:37:16.579Z,2.47
2023-04-02T16:39:56.206Z,3.15
2023-04-02T16:42:35.102Z,3.30
2023-04-02T16:45:19.165Z,2.75
2023-04-02T16:48:01.550Z,3.65
2023-04-02T16:50:41.291Z,4.03
2023-04-02T16:53:20.483Z,4.40
2023-04-02T16:56:13.385Z,2.80
2023-04-02T16:58:52.247Z,3.28
2023-04-02T17:01:29.096Z,3.97
2023-04-02T17:04:19.579Z,2.72
2023-04-02T17:06:56.235Z,3.47
2023-04-02T17:09:32.215Z,2.97
2023-04-02T17:12:12.821Z,3.60
2023-04-02T17:14:48.537Z,3.28
2023-04-02T17:17:17.539Z,2.95
2023-04-02T17:19:46.196Z,4.25
2023-04-02T17:22:18.841Z,2.60
2023-04-02T17:24:51.782Z,3.10
2023-04-02T17:27:27.110Z,2.47
2023-04-02T17:30:02.407Z,3.60
2023-04-02T17:32:32.926Z,2.38
2023-04-02T17:35:19.391Z,4.90
2023-04-02T17:37:53.085Z,4.57
2023-04-02T17:40:28.049Z,5.15
2023-04-02T17:43:04.805Z,2.70
2023-04-02T17:45:42.956Z,6.05
2023-04-02T17:48:19.335Z,5.53
2023-04-02T17:50:55.663Z,3.03
2023-04-02T17:53:40.738Z,5.28
2023-04-02T17:56:26.703Z,6.63
2023-04-02T17:59:27.668Z,4.15
2023-04-02T18:02:06.373Z,3.85
2023-04-02T18:04:39.079Z,6.13
2023-04-02T18:07:30.923Z,3.78
2023-04-02T18:10:08.907Z,5.25
2023-04-02T18:12:55.294Z,6.50
2023-04-02T18:15:55.890Z,7.68
2023-04-02T18:18:37.688Z,5.57
2023-04-02T18:21:13.205Z,5.25
2023-04-02T18:23:49.340Z,4.95
2023-04-02T18:26:26.791Z,6.40
2023-04-02T18:29:07.123Z,6.18
2023-04-02T18:31:46.380Z,6.50
2023-04-02T18:34:30.937Z,11.27
2023-04-02T18:37:07.000Z,4.82
2023-04-02T18:39:45.747Z,7.15
2023-04-02T18:42:29.870Z,7.68
2023-04-02T18:45:04.593Z,7.35
2023-04-02T18:47:37.956Z,7.00
2023-04-02T18:50:16.904Z,5.20
2023-04-02T18:52:47.022Z,7.00
2023-04-02T18:55:19.445Z,5.73
2023-04-02T18:57:52.537Z,5.33
2023-04-02T19:00:27.356Z,3.43
2023-04-02T19:02:59.399Z,7.13
2023-04-02T19:05:34.010Z,3.33
2023-04-02T19:08:04.793Z,6.60
2023-04-02T19:10:35.382Z,4.07
2023-04-02T19:13:03.993Z,4.80
2023-04-02T19:15:42.449Z,3.70
2023-04-02T19:18:18.179Z,8.07
2023-04-02T19:20:51.938Z,14.67
2023-04-02T19:23:26.539Z,29.67
2023-04-02T19:25:58.726Z,35.87
2023-04-02T19:28:32.374Z,32.50
2023-04-02T19:31:09.609Z,13.43
2023-04-02T19:33:42.920Z,12.10
2023-04-02T19:36:40.410Z,5.70
2023-04-02T19:39:39.656Z,7.03
2023-04-02T19:42:15.671Z,7.53
2023-04-02T19:44:46.646Z,4.00
2023-04-02T19:47:16.300Z,8.97
2023-04-02T19:49:46.293Z,8.03
2023-04-02T19:52:15.022Z,7.03
2023-04-02T19:54:43.475Z,3.57
2023-04-02T19:57:14.961Z,7.17
2023-04-02T19:59:43.414Z,6.80
2023-04-02T20:02:12.431Z,4.90
2023-04-02T20:04:40.920Z,6.60
2023-04-02T20:07:10.760Z,8.63
2023-04-02T20:09:39.457Z,8.60
2023-04-02T20:12:08.324Z,7.23
2023-04-02T20:14:36.626Z,6.20
2023-04-02T20:17:05.227Z,7.53
2023-04-02T20:19:33.662Z,9.97
2023-04-02T20:22:02.014Z,13.90
2023-04-02T20:24:31.828Z,10.57
2023-04-02T20:27:00.201Z,11.13
2023-04-02T20:29:30.796Z,10.33
2023-04-02T20:31:59.362Z,11.10
2023-04-02T20:34:29.558Z,11.93
2023-04-02T20:36:59.841Z,13.27
2023-04-02T20:39:28.764Z,15.93
2023-04-02T20:42:02.776Z,18.73
2023-04-02T20:44:31.410Z,17.67
2023-04-02T20:46:59.770Z,22.57
2023-04-02T20:49:28.214Z,20.10
2023-04-02T20:51:56.535Z,21.23
2023-04-02T20:54:26.497Z,17.93
2023-04-02T20:56:54.853Z,17.67
2023-04-02T20:59:24.651Z,19.30
2023-04-02T21:01:53.372Z,17.37
2023-04-02T21:04:22.077Z,19.10
2023-04-02T21:06:56.757Z,16.27
2023-04-02T21:09:25.481Z,18.60
2023-04-02T21:11:53.844Z,18.97
2023-04-02T21:14:22.224Z,17.47
2023-04-02T21:16:51.948Z,17.97
2023-04-02T21:19:20.584Z,20.37
2023-04-02T21:21:49.002Z,23.40
2023-04-02T21:24:17.332Z,17.97
2023-04-02T21:26:46.533Z,22.37
2023-04-02T21:29:15.097Z,21.93
2023-04-02T21:31:43.982Z,18.60
2023-04-02T21:34:17.229Z,20.67
2023-04-02T21:36:47.652Z,19.03
2023-04-02T21:39:19.394Z,20.13
2023-04-02T21:41:50.740Z,18.87
2023-04-02T21:44:20.864Z,21.37
2023-04-02T21:46:51.809Z,19.33
2023-04-02T21:49:23.956Z,19.97
2023-04-02T21:51:52.710Z,21.67
2023-04-02T21:54:21.221Z,19.27
2023-04-02T21:56:50.283Z,19.50
2023-04-02T21:59:19.398Z,24.27
2023-04-02T22:01:49.721Z,19.93
2023-04-02T22:04:20.439Z,22.57
2023-04-02T22:06:50.817Z,20.53
2023-04-02T22:09:21.156Z,24.50
2023-04-02T22:11:51.486Z,25.73
2023-04-02T22:14:19.886Z,24.43
2023-04-02T22:16:48.423Z,23.67
2023-04-02T22:19:18.075Z,21.90
2023-04-02T22:21:47.052Z,25.97
2023-04-02T22:24:22.141Z,17.63
2023-04-02T22:26:50.675Z,18.67
2023-04-02T22:29:19.412Z,16.83
2023-04-02T22:31:48.143Z,17.93
2023-04-02T22:34:16.501Z,18.37
2023-04-02T22:36:44.944Z,17.37
2023-04-02T22:39:15.136Z,16.93
2023-04-02T22:41:44.856Z,16.70
2023-04-02T22:44:15.863Z,14.77
2023-04-02T22:46:44.533Z,14.90
2023-04-02T22:49:19.388Z,14.33
2023-04-02T22:51:48.028Z,15.13
2023-04-02T22:54:16.611Z,16.40
2023-04-02T22:56:46.390Z,16.07
2023-04-02T22:59:14.933Z,15.63
2023-04-02T23:01:43.329Z,14.73
2023-04-02T23:04:11.773Z,15.40
2023-04-02T23:06:40.106Z,17.83
2023-04-02T23:09:08.527Z,15.63
2023-04-02T23:11:36.893Z,16.37
2023-04-02T23:14:06.992Z,18.73
2023-04-02T23:16:35.550Z,15.80
2023-04-02T23:19:04.348Z,17.07
2023-04-02T23:21:32.678Z,19.83
2023-04-02T23:24:01.319Z,18.73
2023-04-02T23:26:31.854Z,23.27
2023-04-02T23:29:01.968Z,22.57
2023-04-02T23:31:31.942Z,20.27
2023-04-02T23:34:00.429Z,21.83
2023-04-02T23:36:30.755Z,21.17
2023-04-02T23:39:01.926Z,19.03
2023-04-02T23:41:31.452Z,23.80
2023-04-02T23:44:00.145Z,22.03
2023-04-02T23:46:29.552Z,25.53
2023-04-02T23:49:00.641Z,21.77
2023-04-02T23:51:31.293Z,22.63
2023-04-02T23:53:59.887Z,27.77
2023-04-02T23:56:28.593Z,26.03
2023-04-02T23:58:56.959Z,29.37
